Time;durP1;ratioP1;P1;durP2;ratioP2;P2;SDS_P1;SDS_P2;PMS_P1;PMS_P2;Temp;Humidity;BMP_temperature;BMP_pressure;BME280_temperature;BME280_humidity;BME280_pressure;Samples;Min_cycle;Max_cycle;Signal;HPM_P1;HPM_P2
2022/01/05 00:00:08;;;;;;;6.88;2.90;;;;;;;2.66;100.00;99266.66;830536;23;1261;-83
2022/01/05 00:00:29;;;;;;;6.68;2.70;;;;;;;2.63;100.00;99273.50;828812;23;1371;-83
2022/01/05 00:00:49;;;;;;;7.70;3.30;;;;;;;2.61;100.00;99270.94;833469;23;1290;-82
2022/01/05 00:01:10;;;;;;;7.30;3.13;;;;;;;2.54;100.00;99282.06;831622;23;4294;-83
2022/01/05 00:01:33;;;;;;;6.30;2.73;;;;;;;2.54;100.00;99289.81;833851;23;796;-83
2022/01/05 00:01:53;;;;;;;5.85;2.55;;;;;;;2.49;100.00;99286.34;839346;23;1221;-82
2022/01/05 00:02:16;;;;;;;7.90;2.80;;;;;;;2.48;100.00;99297.50;846207;23;1214;-83
2022/01/05 00:02:39;;;;;;;6.22;2.97;;;;;;;2.42;100.00;99307.78;842671;23;838;-83
2022/01/05 00:03:04;;;;;;;6.30;3.13;;;;;;;2.38;100.00;99276.84;841991;23;1318;-83
2022/01/05 00:03:25;;;;;;;6.32;3.17;;;;;;;2.37;100.00;99300.88;839056;23;935;-83
2022/01/05 00:03:45;;;;;;;6.80;2.85;;;;;;;2.32;100.00;99297.41;827045;23;1404;-83
2022/01/05 00:04:13;;;;;;;6.97;2.78;;;;;;;2.30;100.00;99275.91;832194;23;1310;-83
2022/01/05 00:04:34;;;;;;;6.68;2.70;;;;;;;2.29;100.00;99294.81;829113;23;4773;-83
2022/01/05 00:04:55;;;;;;;7.78;2.90;;;;;;;2.31;100.00;99271.63;835417;23;1901;-83
2022/01/05 00:05:16;;;;;;;6.05;2.63;;;;;;;2.36;100.00;99300.88;830873;23;757;-82
2022/01/05 00:05:39;;;;;;;6.38;2.50;;;;;;;2.37;100.00;99302.63;830952;23;920;-84
2022/01/05 00:06:03;;;;;;;5.90;2.50;;;;;;;2.42;100.00;99307.78;829379;23;1408;-84
2022/01/05 00:06:24;;;;;;;6.50;2.70;;;;;;;2.43;100.00;99302.66;828650;23;1118;-84
2022/01/05 00:06:47;;;;;;;6.38;2.58;;;;;;;2.53;100.00;99275.19;823608;23;1331;-82
2022/01/05 00:07:08;;;;;;;5.85;2.47;;;;;;;2.55;100.00;99288.97;833787;23;4443;-83
2022/01/05 00:07:28;;;;;;;5.57;2.22;;;;;;;2.47;100.00;99288.06;833533;23;1226;-84
2022/01/05 00:07:49;;;;;;;6.05;2.20;;;;;;;2.53;100.00;99280.34;833199;23;1292;-82
2022/01/05 00:08:12;;;;;;;6.65;2.40;;;;;;;2.45;100.00;99279.44;834311;23;890;-83
2022/01/05 00:08:35;;;;;;;5.95;2.53;;;;;;;2.43;100.00;99300.06;828465;23;1041;-82
2022/01/05 00:08:58;;;;;;;5.72;2.25;;;;;;;2.43;100.00;99314.69;831096;23;840;-83
2022/01/05 00:09:19;;;;;;;5.10;2.22;;;;;;;2.38;100.00;99312.94;833092;23;848;-83
2022/01/05 00:09:39;;;;;;;6.63;2.40;;;;;;;2.35;100.00;99284.56;830590;23;1186;-82
2022/01/05 00:10:00;;;;;;;5.18;2.60;;;;;;;2.29;100.00;99283.66;829609;23;1318;-83
2022/01/05 00:10:20;;;;;;;5.28;2.40;;;;;;;2.30;100.00;99288.81;829466;23;4212;-83
2022/01/05 00:10:41;;;;;;;5.27;2.30;;;;;;;2.29;100.00;99276.75;833513;23;1249;-83
2022/01/05 00:11:01;;;;;;;4.78;2.38;;;;;;;2.40;100.00;99276.84;837602;23;1243;-82
2022/01/05 00:11:23;;;;;;;5.60;2.40;;;;;;;2.42;100.00;99306.06;828958;23;1162;-83
2022/01/05 00:11:43;;;;;;;6.25;2.47;;;;;;;2.42;100.00;99289.75;829850;23;1455;-83
2022/01/05 00:12:04;;;;;;;6.63;2.30;;;;;;;2.34;100.00;99295.72;834950;23;884;-83
2022/01/05 00:12:25;;;;;;;5.28;2.13;;;;;;;2.33;100.00;99298.28;833631;23;1141;-85
2022/01/05 00:12:48;;;;;;;6.25;2.30;;;;;;;2.32;100.00;99281.94;840276;23;1344;-83
2022/01/05 00:13:11;;;;;;;5.60;2.13;;;;;;;2.25;100.00;99292.22;845593;23;4220;-83
2022/01/05 00:13:31;;;;;;;5.35;2.20;;;;;;;2.26;100.00;99299.06;836083;23;1291;-83
2022/01/05 00:13:52;;;;;;;5.65;2.38;;;;;;;2.31;100.00;99306.03;829944;23;1210;-83
2022/01/05 00:14:13;;;;;;;4.72;2.15;;;;;;;2.29;100.00;99322.34;832377;23;1214;-83
2022/01/05 00:14:33;;;;;;;5.23;2.30;;;;;;;2.22;100.00;99311.09;828597;23;1357;-83
2022/01/05 00:14:53;;;;;;;5.28;2.38;;;;;;;2.17;100.00;99285.28;829110;23;1198;-83
2022/01/05 00:15:17;;;;;;;6.13;2.50;;;;;;;2.15;100.00;99299.03;833154;23;1145;-83
2022/01/05 00:15:37;;;;;;;5.25;2.30;;;;;;;2.21;100.00;99304.22;832526;23;1304;-83
2022/01/05 00:16:07;;;;;;;6.20;2.60;;;;;;;2.16;100.00;99309.34;840207;23;1094;-83
2022/01/05 00:16:27;;;;;;;6.25;2.60;;;;;;;2.09;100.00;99286.94;840034;23;4267;-83
2022/01/05 00:16:48;;;;;;;6.03;2.67;;;;;;;2.12;100.00;99304.13;837745;23;1196;-83
2022/01/05 00:17:10;;;;;;;6.25;2.47;;;;;;;2.04;100.00;99284.31;841226;23;1339;-82
2022/01/05 00:17:31;;;;;;;5.88;2.50;;;;;;;2.03;100.00;99298.06;832975;23;1277;-82
2022/01/05 00:17:51;;;;;;;5.60;2.40;;;;;;;2.16;100.00;99300.72;829305;23;1269;-82
2022/01/05 00:18:18;;;;;;;6.50;2.50;;;;;;;2.29;100.00;99283.66;829595;23;995;-82
2022/01/05 00:18:39;;;;;;;5.68;2.35;;;;;;;2.19;100.00;99316.25;827962;23;1336;-83
2022/01/05 00:18:59;;;;;;;4.80;2.43;;;;;;;2.13;100.00;99286.13;825743;23;1204;-82
2022/01/05 00:19:22;;;;;;;5.55;2.50;;;;;;;2.11;100.00;99307.59;836139;23;4227;-83
2022/01/05 00:19:44;;;;;;;5.70;2.50;;;;;;;2.10;100.00;99305.84;838581;23;846;-83
2022/01/05 00:20:08;;;;;;;5.88;2.38;;;;;;;2.14;100.00;99282.66;829113;23;947;-81
2022/01/05 00:20:31;;;;;;;6.20;2.38;;;;;;;2.04;100.00;99288.63;827905;23;1232;-82
2022/01/05 00:20:55;;;;;;;5.03;2.40;;;;;;;1.96;100.00;99324.63;830294;23;872;-81
2022/01/05 00:21:18;;;;;;;5.47;2.42;;;;;;;1.91;100.00;99279.94;832788;23;1174;-83
2022/01/05 00:21:40;;;;;;;6.75;2.40;;;;;;;1.97;100.00;99287.72;836343;23;1224;-83
2022/01/05 00:22:03;;;;;;;6.96;2.52;;;;;;;1.96;100.00;99319.47;835048;23;881;-83
2022/01/05 00:22:24;;;;;;;5.18;2.45;;;;;;;1.99;100.00;99311.75;832419;23;4161;-85
2022/01/05 00:22:45;;;;;;;5.32;2.53;;;;;;;1.94;100.00;99300.56;828868;23;1173;-82
2022/01/05 00:23:05;;;;;;;7.17;2.40;;;;;;;2.00;100.00;99302.34;833200;23;1232;-83
2022/01/05 00:23:26;;;;;;;6.50;2.60;;;;;;;1.97;100.00;99285.13;832000;23;1194;-82
2022/01/05 00:23:52;;;;;;;5.80;2.47;;;;;;;1.90;100.00;99288.50;839140;23;970;-82
2022/01/05 00:24:15;;;;;;;5.28;2.40;;;;;;;1.89;100.00;99330.59;841971;23;977;-82
2022/01/05 00:24:37;;;;;;;6.20;2.70;;;;;;;1.89;100.00;99299.66;841868;23;836;-82
2022/01/05 00:24:57;;;;;;;6.57;2.95;;;;;;;1.83;100.00;99312.50;844551;23;1955;-82
2022/01/05 00:25:21;;;;;;;6.22;2.50;;;;;;;1.78;100.00;99288.41;837294;23;4260;-82
2022/01/05 00:25:41;;;;;;;5.90;2.35;;;;;;;1.75;100.00;99324.47;829508;23;900;-82
2022/01/05 00:26:11;;;;;;;4.68;2.28;;;;;;;1.79;100.00;99316.75;826209;23;802;-82
2022/01/05 00:26:31;;;;;;;6.50;2.60;;;;;;;1.79;100.00;99305.59;831162;23;1201;-82
2022/01/05 00:26:52;;;;;;;7.40;2.47;;;;;;;1.80;100.00;99292.72;830174;23;1417;-83
2022/01/05 00:27:15;;;;;;;7.18;2.58;;;;;;;1.81;100.00;99286.69;839032;23;899;-83
2022/01/05 00:27:36;;;;;;;6.30;2.60;;;;;;;1.79;100.00;99285.84;840440;23;982;-82
2022/01/05 00:27:56;;;;;;;5.03;2.40;;;;;;;1.66;100.00;99294.31;836562;23;1146;-82
2022/01/05 00:28:17;;;;;;;7.00;2.50;;;;;;;1.65;100.00;99339.81;832707;23;4261;-83
2022/01/05 00:28:38;;;;;;;6.97;2.63;;;;;;;1.66;100.00;99330.38;830668;23;848;-83
2022/01/05 00:29:02;;;;;;;6.22;2.92;;;;;;;1.67;100.00;99285.72;833862;23;1188;-82
2022/01/05 00:29:23;;;;;;;7.65;2.95;;;;;;;1.68;100.00;99303.78;832765;23;1258;-82
2022/01/05 00:29:43;;;;;;;6.93;2.80;;;;;;;1.72;100.00;99296.06;829302;23;1445;-83
2022/01/05 00:30:05;;;;;;;5.90;3.03;;;;;;;1.72;100.00;99299.53;829162;23;1245;-83
2022/01/05 00:30:33;;;;;;;6.63;2.83;;;;;;;1.76;100.00;99293.56;832838;23;1305;-83
2022/01/05 00:30:53;;;;;;;7.95;2.95;;;;;;;1.77;100.00;99297.84;831154;23;817;-84
2022/01/05 00:31:17;;;;;;;6.00;2.60;;;;;;;1.77;100.00;99294.41;828721;23;4532;-83
2022/01/05 00:31:38;;;;;;;7.10;2.90;;;;;;;1.77;100.00;99338.22;832594;23;1562;-82
2022/01/05 00:32:01;;;;;;;5.97;2.90;;;;;;;1.69;100.00;99336.44;831819;23;1097;-82
2022/01/05 00:32:23;;;;;;;5.82;2.85;;;;;;;1.69;100.00;99328.69;833026;23;1307;-82
2022/01/05 00:32:43;;;;;;;6.57;2.80;;;;;;;1.69;100.00;99330.44;833846;23;950;-82
2022/01/05 00:33:13;;;;;;;7.22;2.70;;;;;;;1.62;100.00;99329.50;834554;23;868;-82
2022/01/05 00:33:33;;;;;;;6.13;2.70;;;;;;;1.63;100.00;99320.91;836581;23;958;-81
2022/01/05 00:33:54;;;;;;;5.60;2.80;;;;;;;1.70;100.00;99311.50;840425;23;1168;-82
2022/01/05 00:34:15;;;;;;;6.90;3.00;;;;;;;1.72;100.00;99298.66;841206;23;4240;-82
2022/01/05 00:34:36;;;;;;;7.27;2.87;;;;;;;1.75;100.00;99309.84;842176;23;868;-82
2022/01/05 00:34:57;;;;;;;6.36;2.98;;;;;;;1.79;100.00;99321.06;840910;23;1312;-82
2022/01/05 00:35:22;;;;;;;7.07;3.00;;;;;;;1.80;100.00;99302.16;841947;23;1299;-83
2022/01/05 00:35:43;;;;;;;6.28;2.83;;;;;;;1.76;100.00;99318.44;840850;23;1120;-82
2022/01/05 00:36:04;;;;;;;6.60;2.87;;;;;;;1.76;100.00;99313.28;833910;23;1221;-83
2022/01/05 00:36:30;;;;;;;6.10;2.90;;;;;;;1.79;100.00;99331.38;834258;23;888;-82
2022/01/05 00:36:53;;;;;;;7.07;3.33;;;;;;;1.80;100.00;99312.47;836751;23;1336;-82
2022/01/05 00:37:13;;;;;;;7.03;3.17;;;;;;;1.79;100.00;99306.47;828436;23;4214;-82
2022/01/05 00:37:34;;;;;;;8.43;3.20;;;;;;;1.80;100.00;99315.03;832813;23;1368;-82
2022/01/05 00:37:54;;;;;;;8.85;3.22;;;;;;;1.84;100.00;99340.88;835878;23;1169;-82
2022/01/05 00:38:15;;;;;;;8.33;3.30;;;;;;;1.83;100.00;99335.72;840739;23;1040;-83
2022/01/05 00:38:35;;;;;;;6.40;2.97;;;;;;;1.85;100.00;99323.69;841705;23;1291;-83
2022/01/05 00:38:56;;;;;;;6.18;2.85;;;;;;;1.79;100.00;99352.00;840520;23;1274;-82
2022/01/05 00:39:19;;;;;;;6.68;3.38;;;;;;;1.79;100.00;99346.84;841960;23;832;-82
2022/01/05 00:39:40;;;;;;;7.68;3.35;;;;;;;1.74;100.00;99321.00;841259;23;927;-82
2022/01/05 00:40:00;;;;;;;7.70;3.30;;;;;;;1.74;100.00;99343.34;836116;23;1209;-82
2022/01/05 00:40:27;;;;;;;6.95;3.20;;;;;;;1.78;100.00;99314.19;829546;23;4444;-82
2022/01/05 00:40:47;;;;;;;7.95;3.30;;;;;;;1.89;100.00;99312.56;828057;23;1347;-82
2022/01/05 00:41:08;;;;;;;6.72;3.28;;;;;;;1.90;100.00;99344.34;831694;23;845;-82
2022/01/05 00:41:35;;;;;;;6.93;3.00;;;;;;;1.84;100.00;99315.09;834227;23;1142;-82
2022/01/05 00:41:56;;;;;;;7.20;3.20;;;;;;;1.83;100.00;99327.97;835694;23;1138;-82
2022/01/05 00:42:19;;;;;;;6.37;3.47;;;;;;;1.80;100.00;99353.69;832475;23;1297;-82
2022/01/05 00:42:48;;;;;;;6.53;3.20;;;;;;;1.80;100.00;99325.34;837005;23;1303;-82
2022/01/05 00:43:08;;;;;;;7.63;3.40;;;;;;;1.76;100.00;99316.75;831627;23;4326;-82
2022/01/05 00:43:30;;;;;;;8.68;3.53;;;;;;;1.72;100.00;99338.19;833112;23;1221;-82
2022/01/05 00:43:50;;;;;;;7.50;3.45;;;;;;;1.75;100.00;99322.75;828976;23;1304;-82
2022/01/05 00:44:11;;;;;;;7.68;3.40;;;;;;;1.76;100.00;99315.84;835384;23;1180;-82
2022/01/05 00:44:31;;;;;;;8.27;3.40;;;;;;;1.69;100.00;99314.97;828554;23;1179;-82
2022/01/05 00:44:51;;;;;;;7.10;3.42;;;;;;;1.66;100.00;99315.78;840343;23;1953;-82
2022/01/05 00:45:15;;;;;;;8.80;3.63;;;;;;;1.63;100.00;99320.91;837134;23;1040;-82
2022/01/05 00:45:40;;;;;;;8.02;3.35;;;;;;;1.57;100.00;99320.84;840767;23;1368;-82
2022/01/05 00:46:00;;;;;;;8.05;3.20;;;;;;;1.56;100.00;99324.25;833317;23;1092;-82
2022/01/05 00:46:21;;;;;;;7.40;3.23;;;;;;;1.58;100.00;99314.84;831418;23;4181;-82
2022/01/05 00:46:41;;;;;;;7.68;3.40;;;;;;;1.59;100.00;99332.00;830666;23;907;-81
2022/01/05 00:47:02;;;;;;;7.87;3.40;;;;;;;1.57;100.00;99320.84;823934;23;1183;-82
2022/01/05 00:47:23;;;;;;;8.07;3.50;;;;;;;1.65;100.00;99315.78;830627;23;927;-82
2022/01/05 00:47:43;;;;;;;8.47;3.80;;;;;;;1.66;100.00;99320.94;828139;23;1263;-82
2022/01/05 00:48:07;;;;;;;7.73;3.67;;;;;;;1.65;100.00;99319.22;824715;23;1210;-82
2022/01/05 00:48:29;;;;;;;7.63;3.60;;;;;;;1.68;100.00;99328.69;828265;23;1271;-82
2022/01/05 00:48:50;;;;;;;9.65;3.90;;;;;;;1.72;100.00;99325.28;830432;23;852;-82
2022/01/05 00:49:11;;;;;;;9.53;3.87;;;;;;;1.68;100.00;99324.38;817612;23;4270;-82
2022/01/05 00:49:35;;;;;;;6.95;3.40;;;;;;;1.65;100.00;99320.94;829983;23;848;-82
2022/01/05 00:49:55;;;;;;;6.70;3.63;;;;;;;1.63;100.00;99314.88;830117;23;825;-82
2022/01/05 00:50:16;;;;;;;7.60;3.80;;;;;;;1.63;100.00;99323.47;830564;23;893;-82
2022/01/05 00:50:39;;;;;;;9.65;3.88;;;;;;;1.65;100.00;99324.38;833695;23;1323;-82
2022/01/05 00:51:03;;;;;;;8.33;3.70;;;;;;;1.64;100.00;99335.50;834472;23;1329;-82
2022/01/05 00:51:23;;;;;;;7.93;3.67;;;;;;;1.60;100.00;99314.88;832936;23;1455;-82
2022/01/05 00:51:44;;;;;;;9.82;3.50;;;;;;;1.53;100.00;99339.69;829491;23;1348;-82
2022/01/05 00:52:05;;;;;;;9.63;3.47;;;;;;;1.55;100.00;99332.81;829455;23;1335;-82
2022/01/05 00:52:25;;;;;;;11.23;3.65;;;;;;;1.69;100.00;99315.81;835695;23;4231;-82
2022/01/05 00:52:46;;;;;;;7.70;3.60;;;;;;;1.66;100.00;99314.91;833471;23;1134;-82
2022/01/05 00:53:09;;;;;;;8.50;3.60;;;;;;;1.64;100.00;99332.09;836345;23;1125;-82
2022/01/05 00:53:30;;;;;;;8.02;3.95;;;;;;;1.64;100.00;99319.19;837415;23;971;-82
2022/01/05 00:53:51;;;;;;;7.55;3.65;;;;;;;1.60;100.00;99315.72;838833;23;998;-82
2022/01/05 00:54:11;;;;;;;10.27;4.17;;;;;;;1.57;100.00;99326.00;837457;23;1207;-82
2022/01/05 00:54:34;;;;;;;10.77;4.60;;;;;;;1.55;100.00;99324.25;840855;23;1213;-82
2022/01/05 00:54:54;;;;;;;10.05;3.95;;;;;;;1.56;100.00;99319.09;846533;23;832;-82
2022/01/05 00:55:18;;;;;;;10.47;3.90;;;;;;;1.51;100.00;99343.97;839549;23;4260;-82
2022/01/05 00:55:41;;;;;;;10.27;3.80;;;;;;;1.46;100.00;99325.88;838198;23;808;-82
2022/01/05 00:56:03;;;;;;;10.23;3.78;;;;;;;1.48;100.00;99316.47;840112;23;879;-82
2022/01/05 00:56:24;;;;;;;9.43;3.80;;;;;;;1.50;100.00;99316.50;832670;23;1176;-82
2022/01/05 00:56:44;;;;;;;19.73;5.20;;;;;;;1.53;100.00;99344.84;833197;23;1173;-82
2022/01/05 00:57:06;;;;;;;9.70;4.13;;;;;;;1.71;100.00;99328.72;830117;23;853;-82
2022/01/05 00:57:26;;;;;;;9.07;4.30;;;;;;;1.69;100.00;99333.00;832369;23;1234;-82
2022/01/05 00:57:52;;;;;;;6.93;4.40;;;;;;;1.67;100.00;99316.66;829800;23;1055;-82
2022/01/05 00:58:12;;;;;;;8.88;4.00;;;;;;;1.69;100.00;99317.53;827554;23;4208;-82
2022/01/05 00:58:38;;;;;;;9.68;4.03;;;;;;;1.69;100.00;99326.13;828107;23;1501;-82
2022/01/05 00:58:59;;;;;;;7.70;3.95;;;;;;;1.64;100.00;99312.31;833211;23;1141;-82
2022/01/05 00:59:19;;;;;;;7.22;3.80;;;;;;;1.66;100.00;99340.66;840350;23;1273;-82
2022/01/05 00:59:42;;;;;;;7.70;3.70;;;;;;;1.68;100.00;99347.56;840360;23;1349;-81
2022/01/05 01:00:04;;;;;;;9.98;4.00;;;;;;;1.69;100.00;99314.97;841407;23;1080;-82
2022/01/05 01:00:25;;;;;;;10.07;3.88;;;;;;;1.71;100.00;99318.41;840844;23;1355;-82
2022/01/05 01:00:45;;;;;;;10.50;3.70;;;;;;;1.76;100.00;99326.16;841895;23;764;-81
2022/01/05 01:01:06;;;;;;;12.07;3.70;;;;;;;1.75;100.00;99339.91;840745;23;1215;-82
2022/01/05 01:01:26;;;;;;;10.03;3.90;;;;;;;1.73;100.00;99316.72;837020;23;4257;-82
2022/01/05 01:01:52;;;;;;;9.15;3.85;;;;;;;1.87;100.00;99334.88;836189;23;1205;-81
2022/01/05 01:02:13;;;;;;;17.88;4.43;;;;;;;1.89;100.00;99330.59;838115;23;895;-82
2022/01/05 01:02:33;;;;;;;10.87;3.97;;;;;;;1.89;100.00;99351.22;831615;23;784;-81
2022/01/05 01:03:00;;;;;;;9.80;3.65;;;;;;;1.85;100.00;99350.31;828604;23;1253;-82
2022/01/05 01:03:27;;;;;;;7.50;3.40;;;;;;;1.94;100.00;99310.88;832629;23;892;-81
2022/01/05 01:03:47;;;;;;;8.77;3.67;;;;;;;1.99;100.00;99359.88;837196;23;1192;-81
2022/01/05 01:04:08;;;;;;;9.07;3.70;;;;;;;1.96;100.00;99314.31;835882;23;4254;-82
2022/01/05 01:04:28;;;;;;;8.50;3.70;;;;;;;1.93;100.00;99314.31;841362;23;788;-82
2022/01/05 01:04:49;;;;;;;8.43;3.80;;;;;;;1.90;100.00;99319.44;844882;23;1943;-82
2022/01/05 01:05:10;;;;;;;9.63;3.93;;;;;;;1.89;100.00;99333.16;840928;23;1327;-82
2022/01/05 01:05:30;;;;;;;9.57;4.00;;;;;;;1.96;100.00;99331.53;840786;23;1205;-82
2022/01/05 01:05:51;;;;;;;9.02;4.00;;;;;;;1.95;100.00;99325.50;836925;23;1255;-82
2022/01/05 01:06:11;;;;;;;8.60;3.90;;;;;;;1.95;100.00;99328.09;832405;23;1197;-82
2022/01/05 01:06:32;;;;;;;9.00;4.03;;;;;;;1.93;100.00;99319.47;837835;23;912;-82
2022/01/05 01:06:52;;;;;;;10.70;4.23;;;;;;;1.99;100.00;99342.69;829666;23;1173;-82
2022/01/05 01:07:13;;;;;;;9.00;4.00;;;;;;;2.00;100.00;99328.13;831667;23;4205;-82
2022/01/05 01:07:33;;;;;;;8.30;3.80;;;;;;;1.94;100.00;99320.31;837648;23;1120;-81
2022/01/05 01:07:53;;;;;;;9.18;3.80;;;;;;;1.94;100.00;99320.31;836838;23;1248;-82
2022/01/05 01:08:14;;;;;;;8.97;3.57;;;;;;;1.94;100.00;99315.16;840239;23;1140;-80
2022/01/05 01:08:37;;;;;;;7.60;3.78;;;;;;;1.92;100.00;99324.59;843127;23;848;-82
2022/01/05 01:08:58;;;;;;;8.30;3.95;;;;;;;1.91;100.00;99307.41;841872;23;1252;-81
2022/01/05 01:09:18;;;;;;;8.80;4.00;;;;;;;1.90;100.00;99316.88;837216;23;1476;-83
2022/01/05 01:09:38;;;;;;;9.67;4.00;;;;;;;1.92;100.00;99322.03;840864;23;2045;-83
2022/01/05 01:09:59;;;;;;;8.75;3.80;;;;;;;1.95;100.00;99329.78;836930;23;1153;-82
2022/01/05 01:10:19;;;;;;;7.60;3.90;;;;;;;1.96;100.00;99339.25;836631;23;4191;-82
2022/01/05 01:10:40;;;;;;;8.52;4.00;;;;;;;1.95;100.00;99337.50;838702;23;1313;-82
2022/01/05 01:11:03;;;;;;;9.70;3.90;;;;;;;1.93;100.00;99314.31;837671;23;1132;-81
2022/01/05 01:11:24;;;;;;;8.93;3.90;;;;;;;2.01;100.00;99317.81;838564;23;887;-82
2022/01/05 01:11:44;;;;;;;9.33;3.80;;;;;;;1.98;100.00;99322.94;834722;23;888;-82
2022/01/05 01:12:05;;;;;;;9.13;3.80;;;;;;;1.97;100.00;99326.38;832221;23;1202;-81
2022/01/05 01:12:26;;;;;;;10.13;3.90;;;;;;;1.94;100.00;99315.16;828487;23;1150;-81
2022/01/05 01:12:46;;;;;;;10.02;3.80;;;;;;;1.93;100.00;99314.31;828944;23;1154;-82
2022/01/05 01:13:09;;;;;;;8.23;3.73;;;;;;;1.93;100.00;99314.31;836026;23;1257;-82
2022/01/05 01:13:30;;;;;;;7.30;3.78;;;;;;;1.92;100.00;99322.88;828098;23;6027;-82
2022/01/05 01:13:51;;;;;;;7.90;3.92;;;;;;;1.92;100.00;99324.59;830459;23;852;-82
2022/01/05 01:14:11;;;;;;;8.18;4.22;;;;;;;2.02;100.00;99332.44;828616;23;1118;-82
2022/01/05 01:14:31;;;;;;;7.10;3.80;;;;;;;2.19;100.00;99311.94;832581;23;1261;-82
2022/01/05 01:14:52;;;;;;;7.75;3.70;;;;;;;2.16;100.00;99311.03;833097;23;841;-82
2022/01/05 01:15:12;;;;;;;7.53;3.73;;;;;;;2.14;100.00;99325.66;828731;23;1315;-82
2022/01/05 01:15:33;;;;;;;6.78;3.72;;;;;;;2.07;100.00;99337.63;828961;23;1255;-82
2022/01/05 01:15:53;;;;;;;8.43;3.60;;;;;;;2.16;100.00;99341.97;830451;23;931;-82
2022/01/05 01:16:14;;;;;;;7.00;3.60;;;;;;;2.13;100.00;99329.97;816128;23;4213;-82
2022/01/05 01:16:35;;;;;;;9.23;3.70;;;;;;;2.10;100.00;99316.16;833223;23;1390;-82
2022/01/05 01:16:56;;;;;;;9.35;3.78;;;;;;;2.13;100.00;99322.22;830036;23;1344;-82
2022/01/05 01:17:16;;;;;;;9.88;3.72;;;;;;;2.15;100.00;99329.97;829694;23;774;-82
2022/01/05 01:17:37;;;;;;;8.57;3.73;;;;;;;2.11;100.00;99321.31;833493;23;1245;-82
2022/01/05 01:17:58;;;;;;;7.45;3.60;;;;;;;2.09;100.00;99324.75;833647;23;1149;-82
2022/01/05 01:18:19;;;;;;;8.80;3.63;;;;;;;2.03;100.00;99315.25;832716;23;1207;-82
2022/01/05 01:18:40;;;;;;;7.38;3.67;;;;;;;1.99;100.00;99331.53;828910;23;1313;-82
2022/01/05 01:19:00;;;;;;;8.10;3.77;;;;;;;2.00;100.00;99325.53;829632;23;1077;-82
2022/01/05 01:19:21;;;;;;;7.68;3.97;;;;;;;2.02;100.00;99324.69;828200;23;4203;-82
2022/01/05 01:19:41;;;;;;;7.03;3.70;;;;;;;1.99;100.00;99355.59;829568;23;1419;-82
2022/01/05 01:20:03;;;;;;;7.03;3.97;;;;;;;1.95;100.00;99335.81;828424;23;1189;-82
2022/01/05 01:20:23;;;;;;;8.57;3.83;;;;;;;1.92;100.00;99328.03;828889;23;1294;-81
2022/01/05 01:20:45;;;;;;;8.07;3.60;;;;;;;1.93;100.00;99328.91;834505;23;781;-82
2022/01/05 01:21:05;;;;;;;9.55;3.63;;;;;;;1.92;100.00;99324.59;835008;23;865;-82
2022/01/05 01:21:26;;;;;;;7.72;3.65;;;;;;;1.89;100.00;99333.16;835055;23;923;-82
2022/01/05 01:21:46;;;;;;;8.75;3.50;;;;;;;1.88;100.00;99328.84;840438;23;1256;-82
2022/01/05 01:22:07;;;;;;;8.30;3.60;;;;;;;1.89;100.00;99338.31;842220;23;1127;-82
2022/01/05 01:22:29;;;;;;;8.85;3.95;;;;;;;1.88;100.00;99328.84;839442;23;4209;-81
2022/01/05 01:22:51;;;;;;;7.72;4.00;;;;;;;1.84;100.00;99333.13;833383;23;1147;-82
2022/01/05 01:23:11;;;;;;;7.78;3.85;;;;;;;1.84;100.00;99337.41;828623;23;1208;-82
2022/01/05 01:23:40;;;;;;;7.88;3.40;;;;;;;1.85;100.00;99324.53;832721;23;1181;-82
2022/01/05 01:24:00;;;;;;;9.73;3.72;;;;;;;1.88;100.00;99336.59;836027;23;1425;-82
2022/01/05 01:24:21;;;;;;;7.13;3.60;;;;;;;1.90;100.00;99337.47;833454;23;1220;-82
2022/01/05 01:24:42;;;;;;;8.20;3.60;;;;;;;1.86;100.00;99352.03;833628;23;876;-82
2022/01/05 01:25:05;;;;;;;9.53;3.70;;;;;;;1.84;100.00;99351.19;832935;23;1931;-82
2022/01/05 01:25:25;;;;;;;9.40;3.35;;;;;;;1.83;100.00;99328.81;836882;23;4216;-82
2022/01/05 01:25:52;;;;;;;7.67;3.50;;;;;;;1.82;100.00;99336.56;842894;23;950;-82
2022/01/05 01:26:15;;;;;;;8.45;3.65;;;;;;;1.83;100.00;99359.75;845225;23;891;-82
2022/01/05 01:26:35;;;;;;;7.90;3.30;;;;;;;1.85;100.00;99334.00;842027;23;737;-82
2022/01/05 01:26:56;;;;;;;8.37;3.37;;;;;;;1.81;100.00;99350.28;839786;23;1292;-82
2022/01/05 01:27:16;;;;;;;9.98;3.50;;;;;;;1.77;100.00;99354.53;836104;23;993;-82
2022/01/05 01:27:40;;;;;;;7.03;3.40;;;;;;;1.78;100.00;99334.78;838925;23;749;-82
2022/01/05 01:28:00;;;;;;;7.82;3.55;;;;;;;1.80;100.00;99338.22;829989;23;1319;-82
2022/01/05 01:28:23;;;;;;;9.15;3.72;;;;;;;1.79;100.00;99354.56;828208;23;4230;-82
2022/01/05 01:28:43;;;;;;;8.45;3.70;;;;;;;1.79;100.00;99339.09;833519;23;1260;-82
2022/01/05 01:29:06;;;;;;;8.23;3.80;;;;;;;1.83;100.00;99340.88;837335;23;1183;-82
2022/01/05 01:29:27;;;;;;;7.63;3.88;;;;;;;1.82;100.00;99336.56;837072;23;1204;-82
2022/01/05 01:29:47;;;;;;;9.37;3.80;;;;;;;1.82;100.00;99344.28;832058;23;1306;-84
2022/01/05 01:30:09;;;;;;;9.43;3.90;;;;;;;1.81;100.00;99373.47;835144;23;963;-82
2022/01/05 01:30:31;;;;;;;9.00;4.13;;;;;;;1.81;100.00;99361.44;832853;23;1342;-82
2022/01/05 01:30:52;;;;;;;7.40;3.67;;;;;;;1.80;100.00;99358.84;825366;23;1441;-82
2022/01/05 01:31:13;;;;;;;8.23;3.53;;;;;;;1.83;100.00;99338.28;821887;23;4211;-82
2022/01/05 01:31:33;;;;;;;8.98;3.65;;;;;;;1.83;100.00;99380.38;828997;23;1342;-82
2022/01/05 01:31:56;;;;;;;8.73;3.67;;;;;;;1.81;100.00;99340.81;831219;23;1226;-82
2022/01/05 01:32:16;;;;;;;6.43;3.40;;;;;;;1.84;100.00;99370.91;833745;23;1221;-82
2022/01/05 01:32:38;;;;;;;7.65;3.67;;;;;;;1.84;100.00;99366.63;833641;23;834;-82
2022/01/05 01:32:59;;;;;;;8.45;3.70;;;;;;;1.85;100.00;99346.88;835044;23;828;-82
2022/01/05 01:33:20;;;;;;;7.85;3.70;;;;;;;1.83;100.00;99339.13;832539;23;1331;-82
2022/01/05 01:33:41;;;;;;;6.88;3.60;;;;;;;1.92;100.00;99338.34;837283;23;999;-82
2022/01/05 01:34:01;;;;;;;8.20;3.70;;;;;;;1.93;100.00;99342.66;838655;23;792;-82
2022/01/05 01:34:23;;;;;;;7.55;3.58;;;;;;;1.97;100.00;99339.25;831583;23;4204;-82
2022/01/05 01:34:43;;;;;;;7.30;3.55;;;;;;;1.97;100.00;99340.97;834914;23;967;-82
2022/01/05 01:35:05;;;;;;;7.88;3.80;;;;;;;1.93;100.00;99365.84;837578;23;1206;-82
2022/01/05 01:35:26;;;;;;;7.53;3.70;;;;;;;1.96;100.00;99345.25;837144;23;1092;-82
2022/01/05 01:35:47;;;;;;;8.27;3.50;;;;;;;1.93;100.00;99349.53;841042;23;1415;-82
2022/01/05 01:36:07;;;;;;;7.78;3.50;;;;;;;1.90;100.00;99345.22;828942;23;1227;-82
2022/01/05 01:36:28;;;;;;;7.43;3.67;;;;;;;1.91;100.00;99326.34;834244;23;1086;-82
2022/01/05 01:36:49;;;;;;;7.10;3.70;;;;;;;1.89;100.00;99333.16;832980;23;1249;-82
2022/01/05 01:37:09;;;;;;;8.60;3.50;;;;;;;1.86;100.00;99343.47;832958;23;4272;-82
2022/01/05 01:37:32;;;;;;;8.32;3.42;;;;;;;1.87;100.00;99340.03;837577;23;1160;-82
2022/01/05 01:37:54;;;;;;;7.90;3.42;;;;;;;1.86;100.00;99343.47;835751;23;1187;-82
2022/01/05 01:38:17;;;;;;;7.97;3.55;;;;;;;1.86;100.00;99335.72;836876;23;986;-82
2022/01/05 01:38:38;;;;;;;8.88;3.70;;;;;;;1.84;100.00;99335.72;832561;23;963;-82
2022/01/05 01:38:59;;;;;;;8.20;3.50;;;;;;;1.87;100.00;99340.03;837675;23;1176;-82
2022/01/05 01:39:22;;;;;;;8.82;3.40;;;;;;;1.85;100.00;99352.03;835966;23;1184;-82
2022/01/05 01:39:42;;;;;;;8.18;3.45;;;;;;;1.86;100.00;99339.16;837586;23;1199;-83
2022/01/05 01:40:08;;;;;;;7.47;3.13;;;;;;;1.85;100.00;99326.25;841820;23;1212;-82
2022/01/05 01:40:28;;;;;;;8.05;3.50;;;;;;;1.85;100.00;99340.00;839763;23;4784;-82
2022/01/05 01:40:49;;;;;;;7.43;3.77;;;;;;;1.84;100.00;99345.13;832060;23;1212;-82
2022/01/05 01:41:11;;;;;;;8.23;3.78;;;;;;;1.88;100.00;99331.44;833074;23;1307;-82
2022/01/05 01:41:31;;;;;;;8.45;3.90;;;;;;;1.85;100.00;99346.88;841205;23;1235;-82
2022/01/05 01:41:52;;;;;;;8.63;3.83;;;;;;;1.82;100.00;99341.69;834729;23;776;-82
2022/01/05 01:42:12;;;;;;;8.60;3.73;;;;;;;1.80;100.00;99344.28;833875;23;924;-83
2022/01/05 01:42:34;;;;;;;10.02;3.90;;;;;;;1.92;100.00;99337.50;836938;23;1176;-82
2022/01/05 01:42:54;;;;;;;7.97;3.47;;;;;;;1.96;100.00;99340.09;839607;23;1074;-82
2022/01/05 01:43:15;;;;;;;6.45;3.45;;;;;;;1.95;100.00;99333.25;836522;23;4227;-83
2022/01/05 01:43:36;;;;;;;6.78;3.60;;;;;;;1.95;100.00;99343.56;838214;23;1345;-83
2022/01/05 01:43:57;;;;;;;8.27;3.50;;;;;;;1.92;100.00;99332.34;835479;23;1284;-83
2022/01/05 01:44:17;;;;;;;7.82;3.47;;;;;;;1.88;100.00;99346.91;832754;23;1213;-83